createdAt,value
2022-10-19T00:01:02.750Z,102051.02
2022-10-19T00:03:29.598Z,102049.48
2022-10-19T00:05:56.150Z,102048.90
2022-10-19T00:08:22.554Z,102050.73
2022-10-19T00:10:50.423Z,102047.10
2022-10-19T00:13:16.959Z,102044.50
2022-10-19T00:15:45.432Z,102042.20
2022-10-19T00:18:11.983Z,102041.23
2022-10-19T00:20:38.468Z,102049.69
2022-10-19T00:23:05.247Z,102058.69
2022-10-19T00:25:31.974Z,102060.91
2022-10-19T00:27:58.518Z,102060.63
2022-10-19T00:30:25.030Z,102063.89
2022-10-19T00:32:51.488Z,102065.38
2022-10-19T00:35:17.966Z,102065.03
2022-10-19T00:37:44.343Z,102069.41
2022-10-19T00:40:11.296Z,102062.98
2022-10-19T00:42:37.702Z,102058.55
2022-10-19T00:45:14.422Z,102056.10
2022-10-19T00:47:42.667Z,102058.53
2022-10-19T00:50:10.678Z,102057.19
2022-10-19T00:52:38.344Z,102055.59
2022-10-19T00:55:05.287Z,102056.09
2022-10-19T00:57:32.593Z,102051.88
2022-10-19T01:00:00.367Z,102047.33
2022-10-19T01:02:26.996Z,102046.23
2022-10-19T01:04:54.067Z,102047.36
2022-10-19T01:07:21.143Z,102042.20
2022-10-19T01:09:47.684Z,102043.59
2022-10-19T01:12:28.853Z,102052.40
2022-10-19T01:15:34.054Z,102042.85
2022-10-19T01:18:19.989Z,102043.30
2022-10-19T01:21:20.695Z,102049.36
2022-10-19T01:23:47.091Z,102050.84
2022-10-19T01:26:37.595Z,102046.02
2022-10-19T01:29:41.735Z,102042.27
2022-10-19T01:32:34.103Z,102044.27
2022-10-19T01:35:09.298Z,102040.41
2022-10-19T01:37:48.371Z,102046.16
2022-10-19T01:40:50.488Z,102045.60
2022-10-19T01:43:33.226Z,102048.75
2022-10-19T01:46:11.409Z,102051.52
2022-10-19T01:48:41.217Z,102046.21
2022-10-19T01:51:17.813Z,102048.88
2022-10-19T01:53:50.330Z,102049.09
2022-10-19T01:56:19.880Z,102048.41
2022-10-19T01:58:47.863Z,102049.70
2022-10-19T02:01:19.347Z,102050.61
2022-10-19T02:03:45.925Z,102046.06
2022-10-19T02:06:13.899Z,102044.23
2022-10-19T02:08:46.151Z,102044.11
2022-10-19T02:11:12.690Z,102047.86
2022-10-19T02:13:41.548Z,102049.77
2022-10-19T02:16:12.245Z,102053.96
2022-10-19T02:18:44.803Z,102051.45
2022-10-19T02:21:11.522Z,102054.45
2022-10-19T02:23:38.416Z,102050.32
2022-10-19T02:26:05.545Z,102049.66
2022-10-19T02:28:32.919Z,102046.88
2022-10-19T02:31:00.405Z,102047.23
2022-10-19T02:33:28.817Z,102045.75
2022-10-19T02:35:56.366Z,102044.36
2022-10-19T02:38:24.375Z,102047.27
2022-10-19T02:41:07.991Z,102048.07
2022-10-19T02:43:39.086Z,102050.25
2022-10-19T02:46:22.998Z,102045.45
2022-10-19T02:48:51.540Z,102047.25
2022-10-19T02:51:34.011Z,102048.77
2022-10-19T02:54:04.141Z,102050.56
2022-10-19T02:56:32.485Z,102051.91
2022-10-19T02:58:58.946Z,102052.84
2022-10-19T03:01:25.637Z,102054.88
2022-10-19T03:03:52.123Z,102056.30
2022-10-19T03:06:19.133Z,102055.83
2022-10-19T03:08:45.680Z,102055.77
2022-10-19T03:11:12.081Z,102059.09
2022-10-19T03:13:38.605Z,102062.39
2022-10-19T03:16:10.317Z,102062.52
2022-10-19T03:18:36.900Z,102061.55
2022-10-19T03:21:09.191Z,102059.77
2022-10-19T03:23:36.675Z,102056.39
2022-10-19T03:26:03.555Z,102061.29
2022-10-19T03:28:30.498Z,102061.41
2022-10-19T03:30:57.304Z,102059.63
2022-10-19T03:36:15.728Z,102056.70
2022-10-19T03:38:42.515Z,102062.20
2022-10-19T03:41:09.212Z,102060.73
2022-10-19T03:43:35.759Z,102061.69
2022-10-19T03:46:03.121Z,102058.95
2022-10-19T03:48:29.670Z,102058.39
2022-10-19T03:51:05.655Z,102058.18
2022-10-19T03:53:35.433Z,102059.29
2022-10-19T03:56:08.123Z,102061.43
2022-10-19T03:58:36.811Z,102065.13
2022-10-19T04:01:09.241Z,102069.89
2022-10-19T04:06:19.621Z,102074.51
2022-10-19T04:08:50.101Z,102074.84
2022-10-19T04:11:18.869Z,102073.49
2022-10-19T04:13:50.315Z,102070.98
2022-10-19T04:16:17.486Z,102070.59
2022-10-19T04:18:43.899Z,102074.45
2022-10-19T04:21:22.209Z,102077.94
2022-10-19T04:23:49.896Z,102082.02
2022-10-19T04:26:16.394Z,102079.76
2022-10-19T04:28:42.868Z,102070.62
2022-10-19T04:31:11.705Z,102072.80
2022-10-19T04:33:39.071Z,102070.92
2022-10-19T04:36:07.989Z,102072.31
2022-10-19T04:38:35.238Z,102073.00
2022-10-19T04:41:07.241Z,102075.63
2022-10-19T04:43:34.229Z,102078.13
2022-10-19T04:46:05.895Z,102079.98
2022-10-19T04:48:34.276Z,102084.70
2022-10-19T04:51:00.829Z,102085.57
2022-10-19T04:53:28.058Z,102085.92
2022-10-19T04:55:54.541Z,102086.09
2022-10-19T04:58:21.289Z,102089.48
2022-10-19T05:00:48.065Z,102087.33
2022-10-19T05:03:15.228Z,102088.51
2022-10-19T05:05:41.805Z,102091.42
2022-10-19T05:08:09.745Z,102091.89
2022-10-19T05:10:37.590Z,102092.39
2022-10-19T05:13:05.109Z,102094.83
2022-10-19T05:15:32.262Z,102094.60
2022-10-19T05:18:01.901Z,102091.55
2022-10-19T05:20:28.454Z,102086.75
2022-10-19T05:22:54.894Z,102088.17
2022-10-19T05:25:21.430Z,102084.47
2022-10-19T05:27:52.456Z,102083.13
2022-10-19T05:30:21.787Z,102084.09
2022-10-19T05:32:49.079Z,102084.80
2022-10-19T05:35:18.688Z,102081.56
2022-10-19T05:37:48.011Z,102081.16
2022-10-19T05:40:14.443Z,102082.98
2022-10-19T05:42:41.075Z,102084.67
2022-10-19T05:45:07.749Z,102086.17
2022-10-19T05:47:34.871Z,102083.83
2022-10-19T05:50:01.644Z,102086.34
2022-10-19T05:52:28.291Z,102084.70
2022-10-19T05:54:55.671Z,102082.09
2022-10-19T05:57:22.141Z,102084.91
2022-10-19T05:59:48.568Z,102087.52
2022-10-19T06:02:15.062Z,102087.84
2022-10-19T06:04:41.440Z,102088.59
2022-10-19T06:07:07.928Z,102092.36
2022-10-19T06:09:36.459Z,102093.06
2022-10-19T06:12:03.788Z,102092.04
2022-10-19T06:14:30.208Z,102091.59
2022-10-19T06:16:56.699Z,102095.95
2022-10-19T06:19:23.109Z,102095.42
2022-10-19T06:21:49.547Z,102096.50
2022-10-19T06:24:15.973Z,102094.17
2022-10-19T06:26:42.729Z,102100.73
2022-10-19T06:29:09.826Z,102102.93
2022-10-19T06:31:38.388Z,102101.95
2022-10-19T06:34:05.359Z,102105.32
2022-10-19T06:36:32.616Z,102107.46
2022-10-19T06:39:02.094Z,102102.24
2022-10-19T06:41:30.725Z,102102.33
2022-10-19T06:43:57.713Z,102103.71
2022-10-19T06:46:26.199Z,102110.17
2022-10-19T06:49:04.604Z,102112.71
2022-10-19T06:51:34.130Z,102121.09
2022-10-19T06:54:00.771Z,102123.95
2022-10-19T06:56:27.308Z,102129.81
2022-10-19T06:58:54.774Z,102132.16
2022-10-19T07:01:25.031Z,102130.63
2022-10-19T07:03:52.673Z,102131.84
2022-10-19T07:06:20.428Z,102132.23
2022-10-19T07:08:46.969Z,102133.02
2022-10-19T07:11:17.811Z,102129.52
2022-10-19T07:13:44.213Z,102129.84
2022-10-19T07:16:17.598Z,102132.23
2022-10-19T07:18:48.529Z,102135.54
2022-10-19T07:21:16.331Z,102135.24
2022-10-19T07:23:44.369Z,102137.31
2022-10-19T07:26:24.010Z,102139.30
2022-10-19T07:28:51.152Z,102141.80
2022-10-19T07:31:20.491Z,102144.16
2022-10-19T07:33:47.994Z,102142.55
2022-10-19T07:36:14.507Z,102149.02
2022-10-19T07:38:41.210Z,102149.13
2022-10-19T07:41:12.639Z,102151.53
2022-10-19T07:43:40.199Z,102154.05
2022-10-19T07:46:10.548Z,102152.23
2022-10-19T07:48:36.961Z,102156.85
2022-10-19T07:51:06.463Z,102156.31
2022-10-19T07:53:34.283Z,102155.02
2022-10-19T07:56:12.046Z,102162.42
2022-10-19T07:58:39.124Z,102167.85
2022-10-19T08:01:27.107Z,102170.81
2022-10-19T08:04:43.315Z,102170.41
2022-10-19T08:06:41.310Z,102170.42
2022-10-19T08:09:07.986Z,102171.44
2022-10-19T08:11:35.512Z,102176.41
2022-10-19T08:14:03.108Z,102177.56
2022-10-19T08:16:37.319Z,102177.80
2022-10-19T08:19:09.705Z,102178.35
2022-10-19T08:21:42.643Z,102175.00
2022-10-19T08:24:10.823Z,102177.08
2022-10-19T08:26:39.038Z,102178.45
2022-10-19T08:29:12.887Z,102180.01
2022-10-19T08:31:40.026Z,102179.65
2022-10-19T08:34:06.938Z,102176.13
2022-10-19T08:36:35.703Z,102174.86
2022-10-19T08:39:04.669Z,102174.02
2022-10-19T08:41:37.501Z,102168.62
2022-10-19T08:44:10.342Z,102169.68
2022-10-19T08:46:45.734Z,102164.50
2022-10-19T08:49:19.044Z,102163.49
2022-10-19T08:51:51.475Z,102157.89
2022-10-19T08:54:18.329Z,102156.36
2022-10-19T08:56:51.728Z,102152.27
2022-10-19T08:59:21.444Z,102151.20
2022-10-19T09:01:54.394Z,102150.71
2022-10-19T09:04:38.100Z,102152.73
2022-10-19T09:07:24.782Z,102153.84
2022-10-19T09:09:54.491Z,102157.98
2022-10-19T09:12:33.846Z,102156.02
2022-10-19T09:15:07.581Z,102155.16
2022-10-19T09:17:34.886Z,102154.17
2022-10-19T09:20:14.789Z,102151.77
2022-10-19T09:22:42.565Z,102154.11
2022-10-19T09:25:20.560Z,102155.94
2022-10-19T09:27:49.913Z,102154.31
2022-10-19T09:30:20.784Z,102157.31
2022-10-19T09:32:50.078Z,102157.18
2022-10-19T09:35:34.104Z,102153.42
2022-10-19T09:38:01.046Z,102151.17
2022-10-19T09:40:30.361Z,102152.13
2022-10-19T09:42:58.882Z,102155.21
2022-10-19T09:46:13.885Z,102159.50
2022-10-19T09:48:52.850Z,102157.14
2022-10-19T09:51:20.680Z,102158.48
2022-10-19T09:53:53.796Z,102161.78
2022-10-19T09:56:25.765Z,102167.44
2022-10-19T09:58:55.005Z,102165.63
2022-10-19T10:01:41.555Z,102165.23
2022-10-19T10:04:15.149Z,102162.17
2022-10-19T10:06:43.776Z,102162.79
2022-10-19T10:09:18.219Z,102163.67
2022-10-19T10:11:48.573Z,102164.11
2022-10-19T10:14:20.967Z,102165.36
2022-10-19T10:16:52.856Z,102166.45
2022-10-19T10:22:04.058Z,102165.73
2022-10-19T10:24:32.574Z,102164.40
2022-10-19T10:27:02.356Z,102166.64
2022-10-19T10:29:37.590Z,102167.84
2022-10-19T10:32:19.486Z,102168.10
2022-10-19T10:34:59.883Z,102168.84
2022-10-19T10:37:35.639Z,102167.91
2022-10-19T10:40:05.108Z,102163.83
2022-10-19T10:42:42.017Z,102162.67
2022-10-19T10:45:29.905Z,102161.14
2022-10-19T10:47:56.784Z,102165.42
2022-10-19T10:50:30.386Z,102165.23
2022-10-19T10:53:02.535Z,102164.54
2022-10-19T10:55:30.700Z,102157.81
2022-10-19T10:58:18.415Z,102155.11
2022-10-19T11:00:46.080Z,102154.55
2022-10-19T11:03:29.239Z,102156.17
2022-10-19T11:06:00.446Z,102152.52
2022-10-19T11:08:42.219Z,102152.61
2022-10-19T11:11:19.251Z,102147.11
2022-10-19T11:13:52.702Z,102145.11
2022-10-19T11:16:25.323Z,102145.97
2022-10-19T11:19:00.641Z,102139.41
2022-10-19T11:21:42.619Z,102132.88
2022-10-19T11:24:18.674Z,102131.81
2022-10-19T11:27:22.484Z,102128.85
2022-10-19T11:30:09.722Z,102126.59
2022-10-19T11:33:03.451Z,102117.73
2022-10-19T11:35:49.590Z,102106.55
2022-10-19T11:38:39.750Z,102100.54
2022-10-19T11:41:30.953Z,102095.58
2022-10-19T11:44:04.127Z,102090.80
2022-10-19T11:47:01.809Z,102087.32
2022-10-19T11:49:55.180Z,102086.36
2022-10-19T11:52:50.765Z,102088.59
2022-10-19T11:55:32.878Z,102091.98
2022-10-19T11:58:20.078Z,102083.20
2022-10-19T12:01:03.144Z,102078.59
2022-10-19T12:03:53.717Z,102073.64
2022-10-19T12:06:52.103Z,102078.92
2022-10-19T12:10:00.288Z,102080.10
2022-10-19T12:12:37.267Z,102074.69
2022-10-19T12:15:19.432Z,102064.03
2022-10-19T12:17:50.149Z,102064.45
2022-10-19T12:20:46.766Z,102068.48
2022-10-19T12:23:25.973Z,102067.20
2022-10-19T12:25:55.606Z,102069.56
2022-10-19T12:28:27.849Z,102065.11
2022-10-19T12:30:55.791Z,102063.48
2022-10-19T12:33:25.059Z,102063.76
2022-10-19T12:35:57.791Z,102063.44
2022-10-19T12:39:01.031Z,102059.23
2022-10-19T12:41:44.456Z,102058.23
2022-10-19T12:44:29.239Z,102052.66
2022-10-19T12:47:22.552Z,102052.11
2022-10-19T12:49:56.739Z,102053.57
2022-10-19T12:52:39.463Z,102054.02
2022-10-19T12:55:27.759Z,102050.94
2022-10-19T12:58:04.133Z,102054.53
2022-10-19T13:00:35.156Z,102048.27
2022-10-19T13:03:16.114Z,102043.27
2022-10-19T13:05:54.995Z,102040.23
2022-10-19T13:08:32.887Z,102035.86
2022-10-19T13:11:16.816Z,102035.33
2022-10-19T13:14:04.794Z,102037.39
2022-10-19T13:16:31.132Z,102033.31
2022-10-19T13:19:02.657Z,102033.12
2022-10-19T13:21:47.204Z,102024.74
2022-10-19T13:24:35.090Z,102016.11
2022-10-19T13:27:04.333Z,102008.95
2022-10-19T13:29:42.767Z,102006.18
2022-10-19T13:32:43.372Z,101997.38
2022-10-19T13:35:28.709Z,101995.59
2022-10-19T13:38:16.919Z,101996.06
2022-10-19T13:40:49.521Z,101993.12
2022-10-19T13:43:22.627Z,101990.92
2022-10-19T13:46:14.822Z,101985.95
2022-10-19T13:48:59.871Z,101983.81
2022-10-19T13:51:32.720Z,101983.42
2022-10-19T13:54:27.531Z,101976.79
2022-10-19T13:57:04.608Z,101975.34
2022-10-19T14:00:01.997Z,101971.81
2022-10-19T14:02:56.878Z,101971.78
2022-10-19T14:05:41.301Z,101974.44
2022-10-19T14:08:41.815Z,101977.85
2022-10-19T14:11:17.485Z,101980.49
2022-10-19T14:13:48.316Z,101978.41
2022-10-19T14:16:20.753Z,101969.98
2022-10-19T14:18:56.537Z,101969.38
2022-10-19T14:21:34.207Z,101966.94
2022-10-19T14:24:18.701Z,101971.52
2022-10-19T14:26:46.692Z,101972.41
2022-10-19T14:29:13.631Z,101968.20
2022-10-19T14:31:40.176Z,101961.38
2022-10-19T14:34:09.455Z,101962.09
2022-10-19T14:36:50.525Z,101959.94
2022-10-19T14:39:30.779Z,101953.06
2022-10-19T14:42:02.995Z,101951.61
2022-10-19T14:44:37.421Z,101951.35
2022-10-19T14:47:27.275Z,101949.85
2022-10-19T14:49:56.459Z,101955.34
2022-10-19T14:52:39.315Z,101956.66
2022-10-19T14:55:12.756Z,101953.92
2022-10-19T14:57:44.043Z,101960.26
2022-10-19T15:00:22.519Z,101956.36
2022-10-19T15:03:00.862Z,101954.60
2022-10-19T15:05:31.132Z,101952.01
2022-10-19T15:07:57.792Z,101953.49
2022-10-19T15:10:31.206Z,101953.10
2022-10-19T15:13:04.490Z,101948.62
2022-10-19T15:15:33.748Z,101949.05
2022-10-19T15:18:00.217Z,101943.80
2022-10-19T15:20:31.369Z,101938.52
2022-10-19T15:22:59.211Z,101940.14
2022-10-19T15:25:33.947Z,101937.59
2022-10-19T15:28:21.112Z,101939.71
2022-10-19T15:30:59.219Z,101946.40
2022-10-19T15:33:26.224Z,101949.08
2022-10-19T15:35:52.889Z,101950.19
2022-10-19T15:38:26.903Z,101953.13
2022-10-19T15:40:59.013Z,101946.02
2022-10-19T15:43:35.022Z,101941.61
2022-10-19T15:46:05.740Z,101934.77
2022-10-19T15:48:41.395Z,101932.04
2022-10-19T15:51:32.724Z,101929.41
2022-10-19T15:54:01.741Z,101923.52
2022-10-19T15:56:30.960Z,101920.70
2022-10-19T15:58:59.825Z,101921.77
2022-10-19T16:01:30.369Z,101922.64
2022-10-19T16:03:57.668Z,101922.80
2022-10-19T16:06:30.585Z,101918.56
2022-10-19T16:08:58.673Z,101920.69
2022-10-19T16:11:28.899Z,101920.57
2022-10-19T16:13:55.355Z,101917.55
2022-10-19T16:16:30.937Z,101911.46
2022-10-19T16:18:58.631Z,101910.05
2022-10-19T16:21:29.238Z,101910.17
2022-10-19T16:23:56.207Z,101910.16
2022-10-19T16:26:23.300Z,101909.36
2022-10-19T16:28:50.011Z,101912.59
2022-10-19T16:31:17.404Z,101913.55
2022-10-19T16:33:44.427Z,101916.13
2022-10-19T16:36:11.334Z,101913.55
2022-10-19T16:38:37.755Z,101909.12
2022-10-19T16:41:07.355Z,101915.42
2022-10-19T16:43:35.040Z,101918.09
2022-10-19T16:46:02.023Z,101915.91
2022-10-19T16:48:28.530Z,101913.59
2022-10-19T16:51:07.265Z,101912.59
2022-10-19T16:53:35.007Z,101911.25
2022-10-19T16:56:13.052Z,101913.06
2022-10-19T16:58:40.391Z,101907.27
2022-10-19T17:01:12.362Z,101909.69
2022-10-19T17:03:39.207Z,101906.77
2022-10-19T17:06:09.142Z,101912.24
2022-10-19T17:09:02.386Z,101912.56
2022-10-19T17:11:28.214Z,101907.86
2022-10-19T17:14:07.402Z,101908.85
2022-10-19T17:16:36.259Z,101910.23
2022-10-19T17:19:04.291Z,101915.08
2022-10-19T17:21:33.975Z,101921.95
2022-10-19T17:24:02.674Z,101916.71
2022-10-19T17:26:32.696Z,101916.94
2022-10-19T17:29:00.176Z,101917.68
2022-10-19T17:31:28.112Z,101921.98
2022-10-19T17:33:55.110Z,101925.88
2022-10-19T17:36:29.487Z,101922.61
2022-10-19T17:39:02.291Z,101917.77
2022-10-19T17:41:29.460Z,101922.20
2022-10-19T17:43:56.851Z,101919.34
2022-10-19T17:46:27.201Z,101918.14
2022-10-19T17:48:53.766Z,101917.00
2022-10-19T17:51:27.183Z,101917.23
2022-10-19T17:53:58.225Z,101913.41
2022-10-19T17:56:26.103Z,101915.20
2022-10-19T17:58:53.014Z,101918.53
2022-10-19T18:01:22.597Z,101915.20
2022-10-19T18:03:50.644Z,101917.83
2022-10-19T18:06:18.715Z,101916.44
2022-10-19T18:08:48.024Z,101918.75
2022-10-19T18:11:24.399Z,101919.94
2022-10-19T18:13:52.195Z,101922.71
2022-10-19T18:16:22.047Z,101921.46
2022-10-19T18:18:51.804Z,101919.56
2022-10-19T18:21:21.595Z,101917.66
2022-10-19T18:23:48.899Z,101915.45
2022-10-19T18:26:21.850Z,101920.58
2022-10-19T18:28:50.028Z,101921.38
2022-10-19T18:31:22.409Z,101918.65
2022-10-19T18:33:55.073Z,101920.17
2022-10-19T18:36:21.740Z,101918.64
2022-10-19T18:38:57.584Z,101917.44
2022-10-19T18:41:24.833Z,101918.55
2022-10-19T18:43:56.777Z,101916.38
2022-10-19T18:46:25.431Z,101913.55
2022-10-19T18:48:55.667Z,101908.64
2022-10-19T18:51:23.879Z,101910.90
2022-10-19T18:53:50.538Z,101910.97
2022-10-19T18:56:19.445Z,101908.09
2022-10-19T18:58:46.710Z,101903.86
2022-10-19T19:01:18.787Z,101899.90
2022-10-19T19:03:49.626Z,101898.02
2022-10-19T19:06:32.814Z,101897.54
2022-10-19T19:09:01.047Z,101894.23
2022-10-19T19:11:33.046Z,101889.05
2022-10-19T19:14:06.198Z,101889.04
2022-10-19T19:16:35.142Z,101878.23
2022-10-19T19:19:02.092Z,101874.08
2022-10-19T19:21:30.634Z,101866.60
2022-10-19T19:24:01.339Z,101860.02
2022-10-19T19:26:32.076Z,101859.83
2022-10-19T19:28:59.073Z,101856.68
2022-10-19T19:31:26.072Z,101854.79
2022-10-19T19:33:52.776Z,101845.44
2022-10-19T19:36:20.793Z,101842.66
2022-10-19T19:38:50.557Z,101841.45
2022-10-19T19:41:17.467Z,101837.69
2022-10-19T19:43:44.196Z,101830.05
2022-10-19T19:46:13.982Z,101828.54
2022-10-19T19:48:42.624Z,101829.59
2022-10-19T19:51:14.284Z,101826.75
2022-10-19T19:53:40.783Z,101821.81
2022-10-19T19:56:09.544Z,101823.23
2022-10-19T19:58:36.331Z,101826.12
2022-10-19T20:01:32.478Z,101824.38
2022-10-19T20:04:00.104Z,101822.12
2022-10-19T20:06:26.895Z,101833.05
2022-10-19T20:08:57.407Z,101833.14
2022-10-19T20:11:26.716Z,101831.78
2022-10-19T20:13:53.171Z,101831.00
2022-10-19T20:16:29.022Z,101828.70
2022-10-19T20:19:01.350Z,101831.95
2022-10-19T20:21:27.857Z,101830.06
2022-10-19T20:23:54.338Z,101829.53
2022-10-19T20:26:23.499Z,101825.96
2022-10-19T20:28:50.715Z,101822.01
2022-10-19T20:31:17.767Z,101815.20
2022-10-19T20:33:44.745Z,101812.40
2022-10-19T20:36:32.830Z,101808.48
2022-10-19T20:38:59.334Z,101811.20
2022-10-19T20:41:28.316Z,101815.30
2022-10-19T20:43:55.822Z,101812.20
2022-10-19T20:46:27.462Z,101806.47
2022-10-19T20:48:56.239Z,101806.98
2022-10-19T20:51:30.671Z,101809.04
2022-10-19T20:54:00.823Z,101812.27
2022-10-19T20:56:30.456Z,101812.00
2022-10-19T20:59:18.124Z,101804.85
2022-10-19T21:01:45.962Z,101805.37
2022-10-19T21:04:14.285Z,101797.24
2022-10-19T21:06:46.824Z,101794.23
2022-10-19T21:09:15.916Z,101791.66
2022-10-19T21:11:44.279Z,101792.54
2022-10-19T21:14:13.545Z,101796.17
2022-10-19T21:16:40.210Z,101795.47
2022-10-19T21:19:11.003Z,101799.75
2022-10-19T21:21:40.908Z,101802.86
2022-10-19T21:24:11.550Z,101804.63
2022-10-19T21:26:38.826Z,101805.78
2022-10-19T21:29:09.582Z,101801.73
2022-10-19T21:31:38.505Z,101805.90
2022-10-19T21:34:08.234Z,101802.30
2022-10-19T21:36:34.736Z,101801.45
2022-10-19T21:39:01.435Z,101795.95
2022-10-19T21:41:28.014Z,101791.52
2022-10-19T21:43:54.908Z,101786.45
2022-10-19T21:46:22.733Z,101785.61
2022-10-19T21:48:50.615Z,101787.70
2022-10-19T21:51:20.654Z,101784.45
2022-10-19T21:53:47.189Z,101781.30
2022-10-19T21:56:16.040Z,101776.50
2022-10-19T21:58:51.099Z,101776.34
2022-10-19T22:01:19.623Z,101770.48
2022-10-19T22:03:46.657Z,101769.64
2022-10-19T22:06:13.672Z,101764.54
2022-10-19T22:08:44.535Z,101756.84
2022-10-19T22:11:13.862Z,101755.78
2022-10-19T22:13:40.785Z,101747.97
2022-10-19T22:16:16.832Z,101742.77
2022-10-19T22:18:44.088Z,101731.35
2022-10-19T22:21:16.869Z,101725.63
2022-10-19T22:23:44.851Z,101722.92
2022-10-19T22:26:20.926Z,101720.62
2022-10-19T22:28:47.663Z,101710.77
2022-10-19T22:31:14.257Z,101706.34
2022-10-19T22:33:41.066Z,101704.51
2022-10-19T22:36:09.347Z,101707.00
2022-10-19T22:38:36.274Z,101706.99
2022-10-19T22:41:03.087Z,101701.45
2022-10-19T22:43:30.870Z,101698.86
2022-10-19T22:45:57.412Z,101701.80
2022-10-19T22:48:23.920Z,101702.13
2022-10-19T22:50:54.272Z,101706.77
2022-10-19T22:53:24.763Z,101705.44
2022-10-19T22:55:52.109Z,101704.80
2022-10-19T22:58:19.041Z,101706.42
2022-10-19T23:00:45.554Z,101701.63
2022-10-19T23:03:12.438Z,101691.97
2022-10-19T23:05:41.705Z,101694.52
2022-10-19T23:08:08.160Z,101692.37
2022-10-19T23:10:34.668Z,101693.69
2022-10-19T23:13:01.171Z,101696.19
2022-10-19T23:15:27.770Z,101705.36
2022-10-19T23:17:54.527Z,101705.45
2022-10-19T23:20:21.042Z,101696.75
2022-10-19T23:22:47.534Z,101695.90
2022-10-19T23:25:13.983Z,101696.16
2022-10-19T23:27:40.521Z,101694.50
2022-10-19T23:30:07.548Z,101690.83
2022-10-19T23:32:34.390Z,101692.33
2022-10-19T23:35:00.867Z,101696.43
2022-10-19T23:37:27.437Z,101693.71
2022-10-19T23:39:53.894Z,101689.61
2022-10-19T23:42:23.069Z,101690.38
2022-10-19T23:44:49.508Z,101686.96
2022-10-19T23:47:16.278Z,101687.71
2022-10-19T23:49:42.742Z,101688.17
2022-10-19T23:52:10.800Z,101686.88
2022-10-19T23:54:37.519Z,101688.05
2022-10-19T23:57:04.271Z,101682.12
2022-10-19T23:59:30.811Z,101684.27
